createdAt,value
2018-04-16T00:00:21.437Z,991.65
2018-04-16T00:01:30.975Z,991.76
2018-04-16T00:02:40.778Z,991.8
2018-04-16T00:03:50.864Z,991.78
2018-04-16T00:05:00.950Z,991.73
2018-04-16T00:06:11.046Z,991.76
2018-04-16T00:07:20.856Z,991.7
2018-04-16T00:08:30.996Z,991.71
2018-04-16T00:09:41.072Z,991.83
2018-04-16T00:10:51.163Z,991.92
2018-04-16T00:12:00.995Z,991.98
2018-04-16T00:13:10.818Z,992.14
2018-04-16T00:14:20.886Z,992.31
2018-04-16T00:15:30.977Z,992.43
2018-04-16T00:16:41.083Z,992.48
2018-04-16T00:17:51.163Z,992.52
2018-04-16T00:19:00.977Z,992.62
2018-04-16T00:20:11.069Z,992.67
2018-04-16T00:21:20.901Z,992.66
2018-04-16T00:22:30.973Z,992.63
2018-04-16T00:23:41.079Z,992.67
2018-04-16T00:24:51.165Z,992.66
2018-04-16T00:26:00.718Z,992.67
2018-04-16T00:27:10.550Z,992.71
2018-04-16T00:28:20.630Z,992.7
2018-04-16T00:29:30.471Z,992.67
2018-04-16T00:30:40.562Z,992.68
2018-04-16T00:31:50.644Z,992.72
2018-04-16T00:33:01.220Z,992.69
2018-04-16T00:34:11.154Z,992.67
2018-04-16T00:35:21.242Z,992.72
2018-04-16T00:36:31.343Z,992.7
2018-04-16T00:37:41.433Z,992.72
2018-04-16T00:38:51.527Z,992.75
2018-04-16T00:40:01.827Z,992.74
2018-04-16T00:41:11.910Z,992.7
2018-04-16T00:42:21.989Z,992.66
2018-04-16T00:43:32.072Z,992.61
2018-04-16T00:44:42.157Z,992.58
2018-04-16T00:45:52.237Z,992.56
2018-04-16T00:47:02.066Z,992.47
2018-04-16T00:48:12.139Z,992.48
2018-04-16T00:49:21.959Z,992.44
2018-04-16T00:50:32.050Z,992.33
2018-04-16T00:51:42.148Z,992.24
2018-04-16T00:52:51.976Z,992.19
2018-04-16T00:54:01.811Z,992.17
2018-04-16T00:55:11.911Z,992.13
2018-04-16T00:56:22.008Z,992.09
2018-04-16T00:57:31.838Z,992.09
2018-04-16T00:58:41.914Z,992.06
2018-04-16T00:59:51.742Z,992.08
2018-04-16T01:01:01.558Z,992.1
2018-04-16T01:02:11.640Z,992.1
2018-04-16T01:03:21.728Z,992.19
2018-04-16T01:04:31.810Z,992.23
2018-04-16T01:05:41.609Z,992.25
2018-04-16T01:06:51.446Z,992.25
2018-04-16T01:08:01.544Z,992.28
2018-04-16T01:09:11.368Z,992.27
2018-04-16T01:10:21.447Z,992.31
2018-04-16T01:11:31.526Z,992.32
2018-04-16T01:12:41.395Z,992.4
2018-04-16T01:13:51.470Z,992.44
2018-04-16T01:15:01.550Z,992.47
2018-04-16T01:16:11.378Z,992.51
2018-04-16T01:17:21.198Z,992.51
2018-04-16T01:18:31.278Z,992.53
2018-04-16T01:19:41.127Z,992.59
2018-04-16T01:20:51.207Z,992.57
2018-04-16T01:22:01.032Z,992.6
2018-04-16T01:23:11.118Z,992.64
2018-04-16T01:24:20.951Z,992.65
2018-04-16T01:25:30.785Z,992.63
2018-04-16T01:26:40.600Z,992.64
2018-04-16T01:27:50.666Z,992.65
2018-04-16T01:29:00.735Z,992.68
2018-04-16T01:30:10.861Z,992.76
2018-04-16T01:31:20.678Z,992.8
2018-04-16T01:32:30.785Z,992.83
2018-04-16T01:33:40.903Z,992.86
2018-04-16T01:34:50.721Z,992.89
2018-04-16T01:36:00.555Z,992.88
2018-04-16T01:37:10.367Z,992.92
2018-04-16T01:38:20.465Z,992.82
2018-04-16T01:39:30.288Z,992.86
2018-04-16T01:40:40.110Z,992.85
2018-04-16T01:41:49.926Z,992.84
2018-04-16T01:43:00.003Z,992.81
2018-04-16T01:44:09.816Z,992.81
2018-04-16T01:45:19.889Z,992.8
2018-04-16T01:46:29.970Z,992.78
2018-04-16T01:47:40.059Z,992.78
2018-04-16T01:48:49.883Z,992.84
2018-04-16T01:49:59.968Z,992.81
2018-04-16T01:51:10.069Z,992.82
2018-04-16T01:52:20.163Z,992.77
2018-04-16T01:53:29.713Z,992.75
2018-04-16T01:54:39.560Z,992.73
2018-04-16T01:55:49.633Z,992.77
2018-04-16T01:56:59.724Z,992.72
2018-04-16T01:58:09.822Z,992.7
2018-04-16T01:59:19.637Z,992.66
2018-04-16T02:00:29.725Z,992.67
2018-04-16T02:01:39.794Z,992.6
2018-04-16T02:02:49.873Z,992.59
2018-04-16T02:03:59.954Z,992.58
2018-04-16T02:05:10.089Z,992.53
2018-04-16T02:06:20.179Z,992.51
2018-04-16T02:07:30.069Z,992.52
2018-04-16T02:08:40.139Z,992.52
2018-04-16T02:09:50.220Z,992.48
2018-04-16T02:11:00.345Z,992.45
2018-04-16T02:12:10.167Z,992.42
2018-04-16T02:13:19.971Z,992.41
2018-04-16T02:14:30.038Z,992.4
2018-04-16T02:15:40.171Z,992.36
2018-04-16T02:16:49.980Z,992.39
2018-04-16T02:18:00.063Z,992.39
2018-04-16T02:19:10.151Z,992.4
2018-04-16T02:20:20.249Z,992.41
2018-04-16T02:21:30.338Z,992.39
2018-04-16T02:22:40.222Z,992.37
2018-04-16T02:23:50.038Z,992.43
2018-04-16T02:25:00.114Z,992.44
2018-04-16T02:26:10.184Z,992.42
2018-04-16T02:27:20.293Z,992.44
2018-04-16T02:28:30.388Z,992.43
2018-04-16T02:29:40.476Z,992.42
2018-04-16T02:30:50.556Z,992.37
2018-04-16T02:32:00.648Z,992.36
2018-04-16T02:33:10.718Z,992.35
2018-04-16T02:34:20.822Z,992.33
2018-04-16T02:35:30.910Z,992.37
2018-04-16T02:36:40.993Z,992.43
2018-04-16T02:37:50.810Z,992.45
2018-04-16T02:39:00.637Z,992.47
2018-04-16T02:40:10.717Z,992.43
2018-04-16T02:41:20.526Z,992.44
2018-04-16T02:42:30.656Z,992.42
2018-04-16T02:43:40.486Z,992.42
2018-04-16T02:44:50.320Z,992.41
2018-04-16T02:46:00.412Z,992.45
2018-04-16T02:47:10.498Z,992.44
2018-04-16T02:48:20.591Z,992.39
2018-04-16T02:49:30.679Z,992.42
2018-04-16T02:50:40.806Z,992.39
2018-04-16T02:51:50.912Z,992.34
2018-04-16T02:53:00.460Z,992.32
2018-04-16T02:54:10.264Z,992.3
2018-04-16T02:55:20.341Z,992.31
2018-04-16T02:56:30.414Z,992.27
2018-04-16T02:57:40.510Z,992.25
2018-04-16T02:58:50.592Z,992.22
2018-04-16T03:00:00.428Z,992.16
2018-04-16T03:01:10.240Z,992.16
2018-04-16T03:33:34.383Z,991.99
2018-04-16T03:34:44.202Z,991.96
2018-04-16T03:35:53.750Z,991.89
2018-04-16T03:37:03.840Z,991.88
2018-04-16T03:38:13.924Z,991.92
2018-04-16T03:39:24.048Z,991.92
2018-04-16T03:40:34.123Z,991.91
2018-04-16T03:41:44.207Z,991.85
2018-04-16T03:42:54.290Z,991.81
2018-04-16T03:44:04.377Z,991.73
2018-04-16T03:45:14.248Z,991.71
2018-04-16T03:46:24.082Z,991.71
2018-04-16T03:47:33.895Z,991.76
2018-04-16T03:48:43.698Z,991.76
2018-04-16T03:49:53.505Z,991.79
2018-04-16T03:51:03.596Z,991.71
2018-04-16T03:52:13.686Z,991.7
2018-04-16T03:53:23.516Z,991.68
2018-04-16T03:54:33.588Z,991.76
2018-04-16T03:55:43.699Z,991.84
2018-04-16T03:56:53.525Z,991.93
2018-04-16T03:58:03.601Z,992.03
2018-04-16T03:59:13.673Z,992.1
2018-04-16T04:00:23.497Z,992.18
2018-04-16T04:01:33.306Z,992.2
2018-04-16T04:02:43.383Z,992.28
2018-04-16T04:03:53.210Z,992.28
2018-04-16T04:05:03.303Z,992.34
2018-04-16T04:06:13.383Z,992.41
2018-04-16T04:07:23.194Z,992.45
2018-04-16T04:08:33.296Z,992.46
2018-04-16T04:09:43.390Z,992.48
2018-04-16T04:10:53.459Z,992.52
2018-04-16T04:12:03.551Z,992.51
2018-04-16T04:13:13.631Z,992.53
2018-04-16T04:14:23.740Z,992.57
2018-04-16T04:15:33.556Z,992.57
2018-04-16T04:16:43.637Z,992.55
2018-04-16T04:17:53.470Z,992.6
2018-04-16T04:19:03.583Z,992.61
2018-04-16T04:20:13.683Z,992.61
2018-04-16T04:21:23.817Z,992.6
2018-04-16T04:22:33.914Z,992.56
2018-04-16T04:23:43.994Z,992.54
2018-04-16T04:24:53.868Z,992.5
2018-04-16T04:26:04.010Z,992.43
2018-04-16T04:27:14.080Z,992.44
2018-04-16T04:28:24.159Z,992.41
2018-04-16T04:29:33.989Z,992.38
2018-04-16T04:30:44.096Z,992.37
2018-04-16T04:31:54.180Z,992.42
2018-04-16T04:33:04.265Z,992.4
2018-04-16T04:34:14.356Z,992.35
2018-04-16T04:35:24.437Z,992.34
2018-04-16T04:36:34.509Z,992.35
2018-04-16T04:37:44.645Z,992.33
2018-04-16T04:38:54.714Z,992.31
2018-04-16T04:40:04.814Z,992.32
2018-04-16T04:41:14.628Z,992.26
2018-04-16T04:42:24.704Z,992.27
2018-04-16T04:43:34.523Z,992.31
2018-04-16T04:44:44.338Z,992.28
2018-04-16T04:45:54.431Z,992.29
2018-04-16T04:47:04.524Z,992.22
2018-04-16T04:48:14.611Z,992.22
2018-04-16T04:49:24.724Z,992.25
2018-04-16T04:50:34.566Z,992.29
2018-04-16T04:51:44.120Z,992.3
2018-04-16T04:52:54.256Z,992.28
2018-04-16T04:54:04.272Z,992.25
2018-04-16T04:55:14.504Z,992.29
2018-04-16T04:56:24.329Z,992.3
2018-04-16T04:57:34.429Z,992.32
2018-04-16T04:58:44.540Z,992.34
2018-04-16T04:59:54.379Z,992.34
2018-04-16T05:01:04.257Z,992.38
2018-04-16T05:02:14.074Z,992.39
2018-04-16T05:03:23.890Z,992.38
2018-04-16T05:04:33.984Z,992.39
2018-04-16T05:05:44.073Z,992.39
2018-04-16T05:06:53.919Z,992.36
2018-04-16T05:08:04.006Z,992.36
2018-04-16T05:09:14.101Z,992.38
2018-04-16T05:10:23.917Z,992.36
2018-04-16T05:11:34.027Z,992.4
2018-04-16T05:12:43.864Z,992.36
2018-04-16T05:13:53.685Z,992.35
2018-04-16T05:15:03.517Z,992.37
2018-04-16T05:16:13.587Z,992.34
2018-04-16T05:17:23.688Z,992.32
2018-04-16T05:18:33.812Z,992.31
2018-04-16T05:19:43.909Z,992.25
2018-04-16T05:20:53.989Z,992.26
2018-04-16T05:22:03.839Z,992.31
2018-04-16T05:23:13.920Z,992.35
2018-04-16T05:24:23.990Z,992.35
2018-04-16T05:25:34.089Z,992.38
2018-04-16T05:26:44.229Z,992.45
2018-04-16T05:27:54.309Z,992.45
2018-04-16T05:29:04.118Z,992.49
2018-04-16T05:30:14.180Z,992.49
2018-04-16T05:31:23.742Z,992.49
2018-04-16T05:32:33.925Z,992.44
2018-04-16T05:33:44.064Z,992.38
2018-04-16T05:34:53.876Z,992.33
2018-04-16T05:36:03.704Z,992.35
2018-04-16T05:37:13.783Z,992.32
2018-04-16T05:38:23.856Z,992.33
2018-04-16T05:39:33.957Z,992.36
2018-04-16T05:40:44.027Z,992.35
2018-04-16T05:41:54.121Z,992.28
2018-04-16T05:43:04.232Z,992.31
2018-04-16T05:44:14.118Z,992.34
2018-04-16T05:45:24.219Z,992.4
2018-04-16T05:46:34.305Z,992.44
2018-04-16T05:47:44.407Z,992.44
2018-04-16T05:48:54.474Z,992.49
2018-04-16T05:50:04.311Z,992.49
2018-04-16T05:51:14.402Z,992.52
2018-04-16T05:52:24.505Z,992.52
2018-04-16T05:53:34.616Z,992.55
2018-04-16T05:54:44.683Z,992.56
2018-04-16T05:55:54.767Z,992.52
2018-04-16T05:57:04.854Z,992.5
2018-04-16T05:58:14.943Z,992.51
2018-04-16T05:59:25.031Z,992.49
2018-04-16T06:00:35.121Z,992.56
2018-04-16T06:01:45.214Z,992.55
2018-04-16T06:02:55.287Z,992.52
2018-04-16T06:04:05.380Z,992.56
2018-04-16T06:05:15.195Z,992.55
2018-04-16T06:06:25.277Z,992.51
2018-04-16T06:07:35.441Z,992.46
2018-04-16T06:08:45.531Z,992.46
2018-04-16T06:09:55.605Z,992.45
2018-04-16T06:11:05.741Z,992.46
2018-04-16T06:12:15.587Z,992.48
2018-04-16T06:13:25.768Z,992.44
2018-04-16T06:14:35.976Z,992.5
2018-04-16T06:15:46.051Z,992.49
2018-04-16T06:16:56.141Z,992.52
2018-04-16T06:18:06.213Z,992.5
2018-04-16T06:19:16.045Z,992.55
2018-04-16T06:20:26.160Z,992.58
2018-04-16T06:21:36.250Z,992.6
2018-04-16T06:22:46.325Z,992.63
2018-04-16T06:23:55.878Z,992.65
2018-04-16T06:25:06.003Z,992.68
2018-04-16T06:26:16.133Z,992.67
2018-04-16T06:27:26.335Z,992.63
2018-04-16T06:28:36.739Z,992.6
2018-04-16T06:29:46.561Z,992.49
2018-04-16T06:30:56.652Z,992.44
2018-04-16T06:32:06.472Z,992.39
2018-04-16T06:33:16.562Z,992.44
2018-04-16T06:34:26.649Z,992.43
2018-04-16T06:35:36.485Z,992.46
2018-04-16T06:36:46.589Z,992.52
2018-04-16T06:37:57.026Z,992.67
2018-04-16T06:39:06.864Z,992.76
2018-04-16T06:40:16.971Z,992.85
2018-04-16T06:41:27.061Z,992.81
2018-04-16T06:42:37.216Z,992.81
2018-04-16T06:43:47.345Z,992.79
2018-04-16T06:44:57.179Z,992.8
2018-04-16T06:46:07.025Z,992.83
2018-04-16T06:47:17.112Z,992.86
2018-04-16T06:48:26.947Z,992.87
2018-04-16T06:49:36.768Z,992.86
2018-04-16T06:50:46.868Z,992.84
2018-04-16T06:51:56.974Z,992.85
2018-04-16T06:53:07.067Z,992.87
2018-04-16T06:54:17.054Z,992.85
2018-04-16T06:55:26.611Z,992.85
2018-04-16T06:56:36.442Z,992.85
2018-04-16T06:57:46.597Z,992.82
2018-04-16T06:58:56.414Z,992.77
2018-04-16T07:00:06.522Z,992.79
2018-04-16T07:01:16.712Z,992.81
2018-04-16T07:02:26.872Z,992.81
2018-04-16T07:03:36.718Z,992.84
2018-04-16T07:04:46.583Z,992.79
2018-04-16T07:07:35.606Z,992.84
2018-04-16T07:08:45.427Z,992.93
2018-04-16T07:09:55.246Z,992.88
2018-04-16T07:12:30.181Z,992.82
2018-04-16T07:13:39.991Z,992.85
2018-04-16T07:14:50.062Z,992.88
2018-04-16T07:15:59.675Z,992.89
2018-04-16T07:17:09.764Z,992.87
2018-04-16T07:18:19.892Z,992.9
2018-04-16T07:19:29.743Z,992.87
2018-04-16T07:20:39.827Z,992.84
2018-04-16T07:21:49.910Z,992.84
2018-04-16T07:23:00.048Z,992.89
2018-04-16T07:24:10.159Z,992.88
2018-04-16T07:25:20.457Z,992.89
2018-04-16T07:26:30.533Z,992.88
2018-04-16T07:27:40.647Z,992.94
2018-04-16T07:28:50.508Z,992.95
2018-04-16T07:30:00.339Z,992.95
2018-04-16T07:31:10.412Z,993
2018-04-16T07:32:20.501Z,992.98
2018-04-16T07:33:30.640Z,992.97
2018-04-16T07:36:05.794Z,992.91
2018-04-16T07:37:15.871Z,992.9
2018-04-16T07:38:25.963Z,992.89
2018-04-16T07:39:36.041Z,992.89
2018-04-16T07:40:46.171Z,992.86
2018-04-16T07:41:56.242Z,992.89
2018-04-16T07:43:06.057Z,992.85
2018-04-16T07:44:15.887Z,992.83
2018-04-16T07:45:26.036Z,992.84
2018-04-16T07:46:35.904Z,992.91
2018-04-16T07:47:45.713Z,992.89
2018-04-16T07:48:55.852Z,992.87
2018-04-16T07:50:06.104Z,992.85
2018-04-16T07:51:15.933Z,992.84
2018-04-16T07:54:05.157Z,992.88
2018-04-16T07:55:14.990Z,992.9
2018-04-16T07:56:24.814Z,992.9
2018-04-16T07:57:34.903Z,992.84
2018-04-16T07:58:45.064Z,992.84
2018-04-16T07:59:54.622Z,992.82
2018-04-16T08:01:04.433Z,992.8
2018-04-16T08:02:14.258Z,992.83
2018-04-16T08:03:24.400Z,992.84
2018-04-16T08:04:34.526Z,992.86
2018-04-16T08:05:44.826Z,992.88
2018-04-16T08:06:54.937Z,992.94
2018-04-16T08:08:05.044Z,993.01
2018-04-16T08:09:15.219Z,993.03
2018-04-16T08:10:25.333Z,993.02
2018-04-16T08:11:35.441Z,993.05
2018-04-16T08:12:45.539Z,993.06
2018-04-16T08:13:55.621Z,993.08
2018-04-16T08:15:05.531Z,993.15
2018-04-16T08:16:15.494Z,993.15
2018-04-16T08:17:25.757Z,993.11
2018-04-16T08:18:35.878Z,993.07
2018-04-16T08:19:45.986Z,993.04
2018-04-16T08:20:56.094Z,993.02
2018-04-16T08:22:05.898Z,993.03
2018-04-16T08:23:15.870Z,993.03
2018-04-16T08:24:25.973Z,993.07
2018-04-16T08:25:35.831Z,993.04
2018-04-16T08:26:47.208Z,993.01
2018-04-16T08:27:57.306Z,993.09
2018-04-16T08:29:07.650Z,993.04
2018-04-16T08:30:17.485Z,993.11
2018-04-16T08:33:21.629Z,993.04
2018-04-16T08:34:31.783Z,993.03
2018-04-16T08:35:41.706Z,993.05
2018-04-16T08:36:51.586Z,993.02
2018-04-16T08:38:01.678Z,993.07
2018-04-16T08:39:21.159Z,993.08
2018-04-16T08:40:31.331Z,993.11
2018-04-16T08:41:42.006Z,993.16
2018-04-16T08:42:52.715Z,993.21
2018-04-16T08:44:03.169Z,993.23
2018-04-16T08:45:12.975Z,993.24
2018-04-16T08:47:47.883Z,993.26
2018-04-16T08:48:57.974Z,993.25
2018-04-16T08:50:07.553Z,993.3
2018-04-16T08:51:17.637Z,993.36
2018-04-16T08:52:27.786Z,993.35
2018-04-16T08:53:38.074Z,993.39
2018-04-16T08:54:48.178Z,993.41
2018-04-16T08:55:58.011Z,993.43
2018-04-16T08:57:07.860Z,993.52
2018-04-16T08:58:17.948Z,993.57
2018-04-16T08:59:27.852Z,993.62
2018-04-16T09:00:38.038Z,993.65
2018-04-16T09:01:47.922Z,993.69
2018-04-16T09:02:58.061Z,993.7
2018-04-16T09:04:08.149Z,993.72
2018-04-16T09:05:18.263Z,993.73
2018-04-16T09:06:28.388Z,993.68
2018-04-16T09:07:38.492Z,993.71
2018-04-16T09:08:48.397Z,993.74
2018-04-16T09:09:58.624Z,993.75
2018-04-16T09:11:08.753Z,993.74
2018-04-16T09:12:18.863Z,993.75
2018-04-16T09:13:28.951Z,993.76
2018-04-16T09:14:38.829Z,993.77
2018-04-16T09:15:48.933Z,993.79
2018-04-16T09:16:59.042Z,993.77
2018-04-16T09:18:08.876Z,993.78
2018-04-16T09:19:18.979Z,993.79
2018-04-16T09:20:29.113Z,993.8
2018-04-16T09:21:38.993Z,993.82
2018-04-16T09:22:49.099Z,993.8
2018-04-16T09:23:59.219Z,993.87
2018-04-16T09:25:09.320Z,993.88
2018-04-16T09:26:19.474Z,993.89
2018-04-16T09:27:29.576Z,993.87
2018-04-16T09:28:39.893Z,993.85
2018-04-16T09:29:49.728Z,993.83
2018-04-16T09:30:59.839Z,993.83
2018-04-16T09:32:09.929Z,993.86
2018-04-16T09:33:19.995Z,993.89
2018-04-16T09:34:30.079Z,993.91
2018-04-16T09:35:40.165Z,993.96
2018-04-16T09:36:50.257Z,993.92
2018-04-16T09:38:00.391Z,993.9
2018-04-16T09:39:10.638Z,993.89
2018-04-16T09:40:20.745Z,993.94
2018-04-16T09:41:30.833Z,993.99
2018-04-16T09:42:40.931Z,993.93
2018-04-16T09:43:51.016Z,993.92
2018-04-16T09:45:01.111Z,993.91
2018-04-16T09:46:11.208Z,993.95
2018-04-16T09:47:21.311Z,993.94
2018-04-16T09:48:31.403Z,994
2018-04-16T09:49:41.545Z,994.02
2018-04-16T09:50:51.644Z,994.01
2018-04-16T09:52:01.485Z,994.04
2018-04-16T09:53:11.584Z,994.03
2018-04-16T09:54:21.397Z,994.06
2018-04-16T09:55:31.539Z,994.1
2018-04-16T09:56:41.367Z,994.09
2018-04-16T09:57:51.465Z,994.1
2018-04-16T09:59:01.555Z,994.09
2018-04-16T10:00:11.388Z,994.09
2018-04-16T10:01:21.639Z,994.11
2018-04-16T10:02:31.975Z,994.11
2018-04-16T10:03:41.823Z,994.11
2018-04-16T10:04:51.933Z,994.09
2018-04-16T10:06:01.777Z,994.13
2018-04-16T10:07:12.024Z,994.14
2018-04-16T10:08:22.112Z,994.14
2018-04-16T10:09:32.195Z,994.09
2018-04-16T10:10:42.275Z,994.07
2018-04-16T10:11:52.404Z,994.11
2018-04-16T10:13:02.621Z,994.13
2018-04-16T10:14:12.715Z,994.13
2018-04-16T10:15:22.814Z,994.15
2018-04-16T10:16:32.930Z,994.14
2018-04-16T10:17:43.036Z,994.13
2018-04-16T10:18:53.179Z,994.18
2018-04-16T10:20:03.010Z,994.19
2018-04-16T10:21:13.103Z,994.17
2018-04-16T10:22:23.213Z,994.16
2018-04-16T10:23:33.335Z,994.22
2018-04-16T10:24:43.441Z,994.24
2018-04-16T10:25:53.543Z,994.23
2018-04-16T10:27:03.384Z,994.21
2018-04-16T10:28:13.473Z,994.19
2018-04-16T10:29:23.653Z,994.24
2018-04-16T10:30:33.789Z,994.19
2018-04-16T10:31:43.886Z,994.25
2018-04-16T10:32:53.975Z,994.19
2018-04-16T10:34:04.080Z,994.2
2018-04-16T10:35:14.410Z,994.25
2018-04-16T10:36:24.513Z,994.22
2018-04-16T10:37:34.630Z,994.21
2018-04-16T10:38:44.243Z,994.23
2018-04-16T10:39:54.348Z,994.2
2018-04-16T10:41:04.474Z,994.23
2018-04-16T10:42:14.508Z,994.28
2018-04-16T10:43:24.599Z,994.33
2018-04-16T10:44:34.689Z,994.28
2018-04-16T10:45:44.799Z,994.32
2018-04-16T10:46:54.986Z,994.35
2018-04-16T10:48:04.833Z,994.33
2018-04-16T10:49:14.925Z,994.35
2018-04-16T10:50:25.038Z,994.31
2018-04-16T10:51:35.162Z,994.29
2018-04-16T10:52:45.271Z,994.29
2018-04-16T10:53:55.414Z,994.29
2018-04-16T10:55:05.241Z,994.31
2018-04-16T10:56:14.808Z,994.36
2018-04-16T10:57:24.397Z,994.34
2018-04-16T10:58:34.536Z,994.35
2018-04-16T10:59:44.686Z,994.35
2018-04-16T11:00:55.053Z,994.33
2018-04-16T11:02:05.353Z,994.35
2018-04-16T11:03:15.563Z,994.37
2018-04-16T11:04:25.659Z,994.39
2018-04-16T11:05:35.798Z,994.41
2018-04-16T11:06:45.922Z,994.48
2018-04-16T11:07:56.012Z,994.5
2018-04-16T11:09:05.870Z,994.48
2018-04-16T11:10:15.705Z,994.5
2018-04-16T11:11:25.821Z,994.5
2018-04-16T11:12:35.928Z,994.6
2018-04-16T11:13:46.041Z,994.57
2018-04-16T11:14:56.129Z,994.58
2018-04-16T11:16:06.217Z,994.59
2018-04-16T11:17:16.120Z,994.6
2018-04-16T11:18:26.229Z,994.6
2018-04-16T11:19:36.335Z,994.65
2018-04-16T11:20:46.185Z,994.63
2018-04-16T11:21:56.296Z,994.66
2018-04-16T11:23:06.443Z,994.68
2018-04-16T11:24:16.272Z,994.67
2018-04-16T11:25:26.372Z,994.64
2018-04-16T11:26:36.457Z,994.67
2018-04-16T11:27:46.608Z,994.68
2018-04-16T11:28:56.701Z,994.7
2018-04-16T11:30:06.834Z,994.67
2018-04-16T11:31:16.993Z,994.72
2018-04-16T11:32:27.102Z,994.74
2018-04-16T11:33:37.201Z,994.75
2018-04-16T11:34:47.309Z,994.75
2018-04-16T11:35:57.400Z,994.8
2018-04-16T11:37:07.236Z,994.78
2018-04-16T11:38:17.355Z,994.81
2018-04-16T11:39:27.452Z,994.76
2018-04-16T11:40:37.590Z,994.75
2018-04-16T11:41:47.695Z,994.81
2018-04-16T11:42:57.817Z,994.8
2018-04-16T11:44:07.926Z,994.87
2018-04-16T11:45:18.039Z,994.85
2018-04-16T11:46:27.870Z,994.88
2018-04-16T11:47:38.000Z,994.86
2018-04-16T11:48:47.839Z,994.89
2018-04-16T11:49:57.923Z,994.92
2018-04-16T11:51:08.037Z,994.95
2018-04-16T11:52:18.022Z,994.93
2018-04-16T11:53:28.119Z,994.88
2018-04-16T11:54:37.958Z,994.88
2018-04-16T11:55:48.055Z,994.89
2018-04-16T11:56:58.185Z,994.91
2018-04-16T11:58:08.363Z,994.98
2018-04-16T11:59:18.490Z,995.01
2018-04-16T12:00:28.360Z,994.99
2018-04-16T12:01:38.178Z,995.04
2018-04-16T12:02:48.010Z,994.97
2018-04-16T12:03:58.165Z,995.01
2018-04-16T12:05:07.999Z,995.01
2018-04-16T12:06:18.106Z,995.03
2018-04-16T12:07:28.232Z,995
2018-04-16T12:08:38.354Z,995.06
2018-04-16T12:09:48.519Z,995.03
2018-04-16T12:10:58.362Z,995.03
2018-04-16T12:12:08.707Z,995.11
2018-04-16T12:13:18.902Z,995.1
2018-04-16T12:14:28.998Z,995.06
2018-04-16T12:15:39.176Z,995.03
2018-04-16T12:16:49.294Z,995.03
2018-04-16T12:17:59.141Z,995.04
2018-04-16T12:19:09.261Z,995.15
2018-04-16T12:20:19.112Z,995.13
2018-04-16T12:21:29.254Z,995.12
2018-04-16T12:22:39.347Z,995.07
2018-04-16T12:23:49.475Z,995.07
2018-04-16T12:24:59.635Z,995.11
2018-04-16T12:26:09.747Z,995.11
2018-04-16T12:27:19.919Z,995.18
2018-04-16T12:28:30.100Z,995.17
2018-04-16T12:29:40.247Z,995.16
2018-04-16T12:30:50.170Z,995.21
2018-04-16T12:32:00.045Z,995.22
2018-04-16T12:33:10.238Z,995.19
2018-04-16T12:34:20.079Z,995.21
2018-04-16T12:35:30.180Z,995.17
2018-04-16T12:36:40.261Z,995.17
2018-04-16T12:37:50.134Z,995.13
2018-04-16T12:39:00.290Z,995.18
2018-04-16T12:40:10.618Z,995.18
2018-04-16T12:41:20.733Z,995.15
2018-04-16T12:42:30.308Z,995.14
2018-04-16T12:43:40.424Z,995.28
2018-04-16T12:44:50.537Z,995.23
2018-04-16T12:46:00.649Z,995.28
2018-04-16T12:47:10.743Z,995.21
2018-04-16T12:48:20.846Z,995.22
2018-04-16T12:49:30.955Z,995.18
2018-04-16T12:50:41.178Z,995.24
2018-04-16T12:51:51.277Z,995.22
2018-04-16T12:53:01.120Z,995.26
2018-04-16T12:54:11.233Z,995.3
2018-04-16T12:55:20.788Z,995.25
2018-04-16T12:56:30.885Z,995.24
2018-04-16T12:57:40.970Z,995.24
2018-04-16T12:58:51.070Z,995.25
2018-04-16T13:00:01.158Z,995.26
2018-04-16T13:01:11.261Z,995.3
2018-04-16T13:02:21.424Z,995.28
2018-04-16T13:03:31.545Z,995.26
2018-04-16T13:04:41.369Z,995.23
2018-04-16T13:05:51.450Z,995.22
2018-04-16T13:07:01.535Z,995.24
2018-04-16T13:08:11.694Z,995.27
2018-04-16T13:09:21.780Z,995.3
2018-04-16T13:10:31.890Z,995.33
2018-04-16T13:11:41.707Z,995.33
2018-04-16T13:12:51.279Z,995.3
2018-04-16T13:14:01.434Z,995.28
2018-04-16T13:15:11.539Z,995.25
2018-04-16T13:16:21.638Z,995.25
2018-04-16T13:17:31.202Z,995.22
2018-04-16T13:18:41.297Z,995.22
2018-04-16T13:19:51.406Z,995.2
2018-04-16T13:21:01.488Z,995.19
2018-04-16T13:22:11.603Z,995.18
2018-04-16T13:23:21.691Z,995.17
2018-04-16T13:24:31.771Z,995.12
2018-04-16T13:25:41.966Z,995.13
2018-04-16T13:26:51.778Z,995.12
2018-04-16T13:28:01.856Z,995.09
2018-04-16T13:29:11.939Z,995.16
2018-04-16T13:30:21.767Z,995.14
2018-04-16T13:31:31.852Z,995.2
2018-04-16T13:32:41.967Z,995.19
2018-04-16T13:33:51.533Z,995.18
2018-04-16T13:35:01.611Z,995.22
2018-04-16T13:36:11.709Z,995.17
2018-04-16T13:37:21.812Z,995.18
2018-04-16T13:38:31.915Z,995.16
2018-04-16T13:39:42.001Z,995.14
2018-04-16T13:40:52.093Z,995.12
2018-04-16T13:42:02.202Z,995.11
2018-04-16T13:43:12.096Z,995.15
2018-04-16T13:44:21.954Z,995.1
2018-04-16T13:45:31.786Z,995.12
2018-04-16T13:46:41.612Z,995.13
2018-04-16T13:47:51.712Z,995.21
2018-04-16T13:49:01.872Z,995.22
2018-04-16T13:50:11.955Z,995.21
2018-04-16T13:51:22.049Z,995.25
2018-04-16T13:52:32.155Z,995.27
2018-04-16T13:53:42.240Z,995.37
2018-04-16T13:54:52.309Z,995.33
2018-04-16T13:56:02.133Z,995.37
2018-04-16T13:57:12.212Z,995.41
2018-04-16T13:58:22.039Z,995.34
2018-04-16T13:59:32.116Z,995.39
2018-04-16T14:00:41.961Z,995.41
2018-04-16T14:01:51.794Z,995.44
2018-04-16T14:03:01.902Z,995.42
2018-04-16T14:04:11.983Z,995.41
2018-04-16T14:05:22.069Z,995.46
2018-04-16T14:06:32.174Z,995.39
2018-04-16T14:07:42.273Z,995.38
2018-04-16T14:08:52.348Z,995.35
2018-04-16T14:10:02.441Z,995.39
2018-04-16T14:11:12.536Z,995.39
2018-04-16T14:12:22.446Z,995.36
2018-04-16T14:13:32.526Z,995.4
2018-04-16T14:14:42.221Z,995.39
2018-04-16T14:15:52.320Z,995.42
2018-04-16T14:17:02.124Z,995.38
2018-04-16T14:18:12.211Z,995.37
2018-04-16T14:19:22.297Z,995.39
2018-04-16T14:20:32.405Z,995.42
2018-04-16T14:21:42.483Z,995.43
2018-04-16T14:22:52.331Z,995.45
2018-04-16T14:24:02.419Z,995.51
2018-04-16T14:25:11.985Z,995.48
2018-04-16T14:26:22.074Z,995.48
2018-04-16T14:27:31.888Z,995.48
2018-04-16T14:28:42.000Z,995.46
2018-04-16T14:29:52.098Z,995.43
2018-04-16T14:31:02.198Z,995.43
2018-04-16T14:32:12.269Z,995.43
2018-04-16T14:33:21.823Z,995.47
2018-04-16T14:34:31.910Z,995.48
2018-04-16T14:35:42.104Z,995.46
2018-04-16T14:36:51.659Z,995.48
2018-04-16T14:38:01.726Z,995.45
2018-04-16T14:39:11.544Z,995.46
2018-04-16T14:40:21.393Z,995.48
2018-04-16T14:41:31.477Z,995.53
2018-04-16T14:42:41.570Z,995.48
2018-04-16T14:43:51.661Z,995.52
2018-04-16T14:45:01.472Z,995.51
2018-04-16T14:46:11.563Z,995.55
2018-04-16T14:47:21.381Z,995.5
2018-04-16T14:48:31.461Z,995.51
2018-04-16T14:49:41.553Z,995.51
2018-04-16T14:50:51.652Z,995.52
2018-04-16T14:52:01.481Z,995.45
2018-04-16T14:53:11.571Z,995.44
2018-04-16T14:54:21.688Z,995.45
2018-04-16T14:55:31.522Z,995.45
2018-04-16T14:56:41.633Z,995.42
2018-04-16T14:57:51.698Z,995.5
2018-04-16T14:59:01.879Z,995.51
2018-04-16T15:00:11.963Z,995.48
2018-04-16T15:01:21.800Z,995.46
2018-04-16T15:02:31.648Z,995.45
2018-04-16T15:03:41.207Z,995.49
2018-04-16T15:04:51.353Z,995.55
2018-04-16T15:06:01.444Z,995.53
2018-04-16T15:07:11.531Z,995.51
2018-04-16T15:08:21.629Z,995.52
2018-04-16T15:09:31.724Z,995.59
2018-04-16T15:10:41.576Z,995.63
2018-04-16T15:11:51.385Z,995.62
2018-04-16T15:13:01.225Z,995.64
2018-04-16T15:14:11.329Z,995.66
2018-04-16T15:15:21.167Z,995.66
2018-04-16T15:16:31.323Z,995.68